createdAt,value
2023-04-26T05:01:10.004Z,26.30
2023-04-26T05:02:09.998Z,26.30
2023-04-26T05:03:10.444Z,26.30
2023-04-26T05:04:10.151Z,26.30
2023-04-26T05:05:10.190Z,26.24
2023-04-26T05:06:10.119Z,26.31
2023-04-26T05:07:10.122Z,26.27
2023-04-26T05:08:10.158Z,26.27
2023-04-26T05:09:10.162Z,26.30
2023-04-26T05:10:10.209Z,26.22
2023-04-26T05:11:10.206Z,26.23
2023-04-26T05:12:10.277Z,26.19
2023-04-26T05:13:10.329Z,26.22
2023-04-26T05:14:10.385Z,26.17
2023-04-26T05:15:10.467Z,26.12
2023-04-26T05:16:10.619Z,26.09
2023-04-26T05:17:10.574Z,26.09
2023-04-26T05:18:10.622Z,26.11
2023-04-26T05:19:10.606Z,26.07
2023-04-26T05:20:10.645Z,26.02
2023-04-26T05:21:10.698Z,26.02
2023-04-26T05:22:10.757Z,25.99
2023-04-26T05:23:10.822Z,26.08
2023-04-26T05:24:10.826Z,26.02
2023-04-26T05:25:10.858Z,26.07
2023-04-26T05:26:10.930Z,25.96
2023-04-26T05:27:10.966Z,25.97
2023-04-26T05:28:10.975Z,26.04
2023-04-26T05:29:10.989Z,25.98
2023-04-26T05:30:11.051Z,25.96
2023-04-26T05:31:12.047Z,25.88
2023-04-26T05:32:11.168Z,25.96
2023-04-26T05:33:11.197Z,25.98
2023-04-26T05:34:11.165Z,25.88
2023-04-26T05:35:11.247Z,25.85
2023-04-26T05:36:11.263Z,25.87
2023-04-26T05:37:11.325Z,25.85
2023-04-26T05:38:11.333Z,25.82
2023-04-26T05:39:11.351Z,25.80
2023-04-26T05:40:11.411Z,25.75
2023-04-26T05:41:11.443Z,25.70
2023-04-26T05:42:11.516Z,25.68
2023-04-26T05:43:11.575Z,25.69
2023-04-26T05:44:11.536Z,25.73
2023-04-26T05:45:11.582Z,25.80
2023-04-26T05:46:11.698Z,25.53
2023-04-26T05:47:11.615Z,25.58
2023-04-26T05:48:11.747Z,25.46
2023-04-26T05:49:11.633Z,25.43
2023-04-26T05:50:11.563Z,25.37
2023-04-26T05:51:12.484Z,25.38
2023-04-26T05:52:11.568Z,25.20
2023-04-26T05:53:11.582Z,25.30
2023-04-26T05:54:11.588Z,25.16
2023-04-26T05:55:12.403Z,25.17
2023-04-26T05:56:11.530Z,25.35
2023-04-26T05:57:12.492Z,25.54
2023-04-26T05:58:11.671Z,25.68
2023-04-26T05:59:11.700Z,26.09
2023-04-26T06:00:11.733Z,26.01
2023-04-26T06:01:11.851Z,25.97
2023-04-26T06:02:11.958Z,25.98
2023-04-26T06:03:13.174Z,25.83
2023-04-26T06:04:12.213Z,25.86
2023-04-26T06:05:12.103Z,25.81
2023-04-26T06:06:11.983Z,25.90
2023-04-26T06:07:11.952Z,25.93
2023-04-26T06:08:12.045Z,25.85
2023-04-26T06:09:11.984Z,25.86
2023-04-26T06:10:11.948Z,25.81
2023-04-26T06:11:11.968Z,25.96
2023-04-26T06:12:11.980Z,25.81
2023-04-26T06:13:11.986Z,25.74
2023-04-26T06:14:23.197Z,25.68
2023-04-26T06:15:12.897Z,25.79
2023-04-26T06:16:11.927Z,25.67
2023-04-26T06:17:12.004Z,25.71
2023-04-26T06:18:11.917Z,25.74
2023-04-26T06:19:11.914Z,25.71
2023-04-26T06:20:11.866Z,25.71
2023-04-26T06:21:11.878Z,25.70
2023-04-26T06:22:11.890Z,25.65
2023-04-26T06:23:11.933Z,25.70
2023-04-26T06:24:11.937Z,25.65
2023-04-26T06:25:13.985Z,25.66
2023-04-26T06:26:12.489Z,25.70
2023-04-26T06:27:12.492Z,26.06
2023-04-26T06:28:12.131Z,26.15
2023-04-26T06:29:12.106Z,26.14
2023-04-26T06:30:12.192Z,26.18
2023-04-26T06:31:12.288Z,26.22
2023-04-26T06:32:12.421Z,26.23
2023-04-26T06:33:12.605Z,26.19
2023-04-26T06:34:12.228Z,26.19
2023-04-26T06:35:12.235Z,26.21
2023-04-26T06:36:12.322Z,26.23
2023-04-26T06:37:12.250Z,26.44
2023-04-26T06:38:12.362Z,26.64
2023-04-26T06:39:12.294Z,26.71
2023-04-26T06:40:12.311Z,26.76
2023-04-26T06:41:12.276Z,26.72
2023-04-26T06:42:12.292Z,26.68
2023-04-26T06:43:12.281Z,26.79
2023-04-26T06:44:12.318Z,26.65
2023-04-26T06:45:12.312Z,26.69
2023-04-26T06:46:12.380Z,26.64
2023-04-26T06:47:12.328Z,26.64
2023-04-26T06:48:12.393Z,26.61
2023-04-26T06:49:12.297Z,26.67
2023-04-26T06:50:12.345Z,26.70
2023-04-26T06:51:12.468Z,26.71
2023-04-26T06:52:12.379Z,26.98
2023-04-26T06:53:12.460Z,26.76
2023-04-26T06:54:12.485Z,26.69
2023-04-26T06:55:12.396Z,26.64
2023-04-26T06:56:12.427Z,26.62
2023-04-26T06:57:12.389Z,26.68
2023-04-26T06:58:12.442Z,26.72
2023-04-26T06:59:12.414Z,26.87
2023-04-26T07:00:12.407Z,27.00
2023-04-26T07:01:12.485Z,26.88
2023-04-26T07:02:13.354Z,26.93
2023-04-26T07:03:12.801Z,26.85
2023-04-26T07:04:12.987Z,26.95
2023-04-26T07:05:12.920Z,26.85
2023-04-26T07:06:12.804Z,26.77
2023-04-26T07:07:13.411Z,26.98
2023-04-26T07:08:13.044Z,26.82
2023-04-26T07:09:12.965Z,26.80
2023-04-26T07:10:13.030Z,26.77
2023-04-26T07:11:13.264Z,26.74
2023-04-26T07:12:13.096Z,26.66
2023-04-26T07:13:13.531Z,26.66
2023-04-26T07:14:13.221Z,26.63
2023-04-26T07:15:13.316Z,26.59
2023-04-26T07:16:13.317Z,26.59
2023-04-26T07:17:13.375Z,26.66
2023-04-26T07:18:13.589Z,26.55
2023-04-26T07:19:13.547Z,26.40
2023-04-26T07:20:13.530Z,26.51
2023-04-26T07:21:13.587Z,26.50
2023-04-26T07:22:13.654Z,26.48
2023-04-26T07:23:13.787Z,26.40
2023-04-26T07:24:13.765Z,26.38
2023-04-26T07:25:13.796Z,26.26
2023-04-26T07:26:13.874Z,26.32
2023-04-26T07:27:13.883Z,26.28
2023-04-26T07:28:13.988Z,26.13
2023-04-26T07:29:14.043Z,26.21
2023-04-26T07:30:14.085Z,26.16
2023-04-26T07:31:14.116Z,26.23
2023-04-26T07:32:14.265Z,26.26
2023-04-26T07:33:14.454Z,26.19
2023-04-26T07:34:14.325Z,26.12
2023-04-26T07:35:14.455Z,26.10
2023-04-26T07:36:14.404Z,26.06
2023-04-26T07:37:14.459Z,26.12
2023-04-26T07:38:14.487Z,26.12
2023-04-26T07:39:14.558Z,25.96
2023-04-26T07:40:14.794Z,26.08
2023-04-26T07:41:14.879Z,26.11
2023-04-26T07:42:14.989Z,26.27
2023-04-26T07:43:14.774Z,26.22
2023-04-26T07:44:14.809Z,26.05
2023-04-26T07:45:14.913Z,26.21
2023-04-26T07:46:14.961Z,26.18
2023-04-26T07:47:14.982Z,26.21
2023-04-26T07:48:15.121Z,26.38
2023-04-26T07:49:15.145Z,26.45
2023-04-26T07:50:15.179Z,26.49
2023-04-26T07:51:15.178Z,26.46
2023-04-26T07:52:15.292Z,26.42
2023-04-26T07:53:15.333Z,26.63
2023-04-26T07:54:15.353Z,26.64
2023-04-26T07:55:17.596Z,26.63
2023-04-26T07:56:15.485Z,26.62
2023-04-26T07:57:15.547Z,26.69
2023-04-26T07:58:15.651Z,26.75
2023-04-26T07:59:15.635Z,26.77
2023-04-26T08:00:15.686Z,26.75
2023-04-26T08:01:16.880Z,26.66
2023-04-26T08:02:15.936Z,26.66
2023-04-26T08:03:15.977Z,26.65
2023-04-26T08:04:16.047Z,26.65
2023-04-26T08:05:15.984Z,26.61
2023-04-26T08:06:16.048Z,26.60
2023-04-26T08:07:15.975Z,26.55
2023-04-26T08:08:17.184Z,26.57
2023-04-26T08:09:16.078Z,26.55
2023-04-26T08:10:16.156Z,26.60
2023-04-26T08:11:16.179Z,26.55
2023-04-26T08:12:16.360Z,26.54
2023-04-26T08:13:16.271Z,26.58
2023-04-26T08:14:16.413Z,26.58
2023-04-26T08:15:16.357Z,26.59
2023-04-26T08:16:16.426Z,26.57
2023-04-26T08:17:16.521Z,26.59
2023-04-26T08:18:16.498Z,26.59
2023-04-26T08:19:16.553Z,26.66
2023-04-26T08:20:16.706Z,26.67
2023-04-26T08:21:16.691Z,26.64
2023-04-26T08:22:16.762Z,26.68
2023-04-26T08:23:16.806Z,26.66
2023-04-26T08:24:16.857Z,26.71
2023-04-26T08:25:16.897Z,26.51
2023-04-26T08:26:16.943Z,26.60
2023-04-26T08:27:17.042Z,26.23
2023-04-26T08:28:17.060Z,25.64
2023-04-26T08:29:17.074Z,25.83
2023-04-26T08:30:17.081Z,25.05
2023-04-26T08:31:17.784Z,25.19
2023-04-26T08:32:17.195Z,24.88
2023-04-26T08:33:17.099Z,25.22
2023-04-26T08:34:17.442Z,25.14
2023-04-26T08:35:17.196Z,25.57
2023-04-26T08:36:17.141Z,25.76
2023-04-26T08:37:17.259Z,26.29
2023-04-26T08:38:17.163Z,26.84
2023-04-26T08:39:17.272Z,27.10
2023-04-26T08:40:29.195Z,27.38
2023-04-26T08:41:17.159Z,28.17
2023-04-26T08:42:17.163Z,28.04
2023-04-26T08:43:17.214Z,28.42
2023-04-26T08:44:17.586Z,28.06
2023-04-26T08:45:17.215Z,27.91
2023-04-26T08:46:17.212Z,27.75
2023-04-26T08:47:17.154Z,27.06
2023-04-26T08:48:17.146Z,27.05
2023-04-26T08:49:17.134Z,26.08
2023-04-26T08:50:19.060Z,24.95
2023-04-26T08:51:17.128Z,24.89
2023-04-26T08:52:17.268Z,24.41
2023-04-26T08:53:17.237Z,24.17
2023-04-26T08:54:17.154Z,23.67
2023-04-26T08:55:18.112Z,23.45
2023-04-26T08:56:17.095Z,23.28
2023-04-26T08:57:17.105Z,23.58
2023-04-26T08:58:17.107Z,24.17
2023-04-26T08:59:17.113Z,23.93
2023-04-26T09:00:17.128Z,23.94
2023-04-26T09:01:17.304Z,24.31
2023-04-26T09:02:17.153Z,24.77
2023-04-26T09:03:17.231Z,24.85
2023-04-26T09:04:17.396Z,25.09
2023-04-26T09:05:17.236Z,25.18
2023-04-26T09:06:17.326Z,25.32
2023-04-26T09:07:17.340Z,25.64
2023-04-26T09:08:17.366Z,25.70
2023-04-26T09:09:18.078Z,25.88
2023-04-26T09:10:17.469Z,25.87
2023-04-26T09:11:17.456Z,25.92
2023-04-26T09:12:17.436Z,25.91
2023-04-26T09:13:17.481Z,26.07
2023-04-26T09:14:17.485Z,25.98
2023-04-26T09:15:18.081Z,26.08
2023-04-26T09:16:18.195Z,26.12
2023-04-26T09:17:17.530Z,26.14
2023-04-26T09:18:17.536Z,26.17
2023-04-26T09:19:17.543Z,26.15
2023-04-26T09:20:17.585Z,26.15
2023-04-26T09:21:17.596Z,26.03
2023-04-26T09:22:17.571Z,26.04
2023-04-26T09:23:19.082Z,25.77
2023-04-26T09:24:17.585Z,25.86
2023-04-26T09:25:17.679Z,26.00
2023-04-26T09:26:23.618Z,25.87
2023-04-26T09:27:17.678Z,26.04
2023-04-26T09:28:17.712Z,26.08
2023-04-26T09:29:17.666Z,26.03
2023-04-26T09:30:18.016Z,26.11
2023-04-26T09:31:17.693Z,25.65
2023-04-26T09:32:17.655Z,25.74
2023-04-26T09:33:19.776Z,25.99
2023-04-26T09:34:17.655Z,26.02
2023-04-26T09:35:17.719Z,26.04
2023-04-26T09:36:17.620Z,26.05
2023-04-26T09:37:17.633Z,26.07
2023-04-26T09:38:17.645Z,25.98
2023-04-26T09:39:17.649Z,26.08
2023-04-26T09:40:17.633Z,26.23
2023-04-26T09:41:17.726Z,26.27
2023-04-26T09:42:17.701Z,26.31
2023-04-26T09:43:17.748Z,26.30
2023-04-26T09:44:17.761Z,26.43
2023-04-26T09:45:17.862Z,26.35
2023-04-26T09:46:17.900Z,26.36
2023-04-26T09:47:17.885Z,26.32
2023-04-26T09:48:17.903Z,26.28
2023-04-26T09:49:17.970Z,26.15
2023-04-26T09:50:18.034Z,26.46
2023-04-26T09:51:18.022Z,26.30
2023-04-26T09:52:18.113Z,26.28
2023-04-26T09:53:18.124Z,26.39
2023-04-26T09:54:18.185Z,26.61
2023-04-26T09:55:31.089Z,26.61
2023-04-26T09:56:19.267Z,26.68
2023-04-26T09:57:18.236Z,26.75
2023-04-26T09:58:18.257Z,26.78
2023-04-26T09:59:18.232Z,26.66
2023-04-26T10:00:18.222Z,26.46
2023-04-26T10:01:18.302Z,26.36
2023-04-26T10:02:18.285Z,26.43
2023-04-26T10:03:18.247Z,26.32
2023-04-26T10:04:18.354Z,26.29
2023-04-26T10:05:18.219Z,24.92
2023-04-26T10:06:18.192Z,23.33
2023-04-26T10:07:18.228Z,23.24
2023-04-26T10:08:18.192Z,22.93
2023-04-26T10:09:18.276Z,22.65
2023-04-26T10:10:18.290Z,22.48
2023-04-26T10:11:18.309Z,22.93
2023-04-26T10:12:18.332Z,22.94
2023-04-26T10:13:18.341Z,23.46
2023-04-26T10:14:18.352Z,23.90
2023-04-26T10:15:18.334Z,24.17
2023-04-26T10:16:18.434Z,24.34
2023-04-26T10:17:18.371Z,24.17
2023-04-26T10:18:18.443Z,24.05
2023-04-26T10:19:18.415Z,23.77
2023-04-26T10:20:18.403Z,23.77
2023-04-26T10:21:18.450Z,23.41
2023-04-26T10:22:18.438Z,23.63
2023-04-26T10:23:18.465Z,23.48
2023-04-26T10:24:18.499Z,23.65
2023-04-26T10:25:18.473Z,22.82
2023-04-26T10:26:18.497Z,22.52
2023-04-26T10:27:18.490Z,22.23
2023-04-26T10:28:18.559Z,21.07
2023-04-26T10:29:18.531Z,22.05
2023-04-26T10:30:18.569Z,21.62
2023-04-26T10:31:18.642Z,21.18
2023-04-26T10:32:18.759Z,21.59
2023-04-26T10:33:18.701Z,21.45
2023-04-26T10:34:18.687Z,21.54
2023-04-26T10:35:18.772Z,21.60
2023-04-26T10:36:18.834Z,21.57
2023-04-26T10:37:18.917Z,21.59
2023-04-26T10:38:18.941Z,21.13
2023-04-26T10:39:18.938Z,21.19
2023-04-26T10:40:18.968Z,21.43
2023-04-26T10:41:19.045Z,20.75
2023-04-26T10:42:19.034Z,21.15
2023-04-26T10:43:19.098Z,20.88
2023-04-26T10:44:19.167Z,21.06
2023-04-26T10:45:19.226Z,21.29
2023-04-26T10:46:19.353Z,21.59
2023-04-26T10:47:19.402Z,20.82
2023-04-26T10:48:19.365Z,21.05
2023-04-26T10:49:19.383Z,21.26
2023-04-26T10:50:19.432Z,21.34
2023-04-26T10:51:19.496Z,21.53
2023-04-26T10:52:19.565Z,21.56
2023-04-26T10:53:19.599Z,21.70
2023-04-26T10:54:19.678Z,21.90
2023-04-26T10:55:19.703Z,21.60
2023-04-26T10:56:19.741Z,21.61
2023-04-26T10:57:19.804Z,21.54
2023-04-26T10:58:19.915Z,21.48
2023-04-26T10:59:36.435Z,21.43
2023-04-26T11:00:20.958Z,21.33
2023-04-26T11:01:19.901Z,21.55
2023-04-26T11:02:19.950Z,21.72
2023-04-26T11:03:20.006Z,21.34
2023-04-26T11:04:19.940Z,21.57
2023-04-26T11:05:19.854Z,21.34
2023-04-26T11:06:19.862Z,21.26
2023-04-26T11:07:19.851Z,20.68
2023-04-26T11:08:19.883Z,19.99
2023-04-26T11:09:19.896Z,20.45
2023-04-26T11:10:19.890Z,19.94
2023-04-26T11:11:19.957Z,20.27
2023-04-26T11:12:19.965Z,20.09
2023-04-26T11:13:20.044Z,20.04
2023-04-26T11:14:20.108Z,19.97
2023-04-26T11:15:20.161Z,20.01
2023-04-26T11:16:20.197Z,20.29
2023-04-26T11:17:20.272Z,20.18
2023-04-26T11:18:20.309Z,19.97
2023-04-26T11:19:20.357Z,20.01
2023-04-26T11:20:20.368Z,20.43
2023-04-26T11:21:20.412Z,20.36
2023-04-26T11:22:20.464Z,20.10
2023-04-26T11:23:20.523Z,20.32
2023-04-26T11:24:20.624Z,20.27
2023-04-26T11:25:20.668Z,20.24
2023-04-26T11:26:20.703Z,19.82
2023-04-26T11:27:20.783Z,19.46
2023-04-26T11:28:20.815Z,19.34
2023-04-26T11:29:20.868Z,19.11
2023-04-26T11:30:20.919Z,18.97
2023-04-26T11:31:21.030Z,19.20
2023-04-26T11:32:20.963Z,19.66
2023-04-26T11:33:21.003Z,19.17
2023-04-26T11:34:21.036Z,19.01
2023-04-26T11:35:21.071Z,18.73
2023-04-26T11:36:21.074Z,18.65
2023-04-26T11:37:21.132Z,19.42
2023-04-26T11:38:21.126Z,19.58
2023-04-26T11:39:21.172Z,19.62
2023-04-26T11:40:21.207Z,21.48
2023-04-26T11:41:21.274Z,21.74
2023-04-26T11:42:21.326Z,21.91
2023-04-26T11:43:21.406Z,22.16
2023-04-26T11:44:21.455Z,22.21
2023-04-26T11:45:21.450Z,21.90
2023-04-26T11:46:21.644Z,21.36
2023-04-26T11:47:21.523Z,21.62
2023-04-26T11:48:21.716Z,22.11
2023-04-26T11:49:21.655Z,22.00
2023-04-26T11:50:21.608Z,22.14
2023-04-26T11:51:21.658Z,21.03
2023-04-26T11:52:21.662Z,20.74
2023-04-26T11:53:21.687Z,20.47
2023-04-26T11:54:21.668Z,20.94
2023-04-26T11:55:21.713Z,20.85
2023-04-26T11:56:21.761Z,20.40
2023-04-26T11:57:21.757Z,19.78
2023-04-26T11:58:21.758Z,19.55
2023-04-26T11:59:21.821Z,19.97
2023-04-26T12:00:21.817Z,18.64
2023-04-26T12:01:21.865Z,18.75
2023-04-26T12:02:22.025Z,19.06
2023-04-26T12:03:22.364Z,19.73
2023-04-26T12:04:22.198Z,20.07
2023-04-26T12:05:22.149Z,20.37
2023-04-26T12:06:22.135Z,20.38
2023-04-26T12:07:22.203Z,20.68
2023-04-26T12:08:22.246Z,20.76
2023-04-26T12:09:22.272Z,20.48
2023-04-26T12:10:22.284Z,20.67
2023-04-26T12:11:22.335Z,20.15
2023-04-26T12:12:22.345Z,20.16
2023-04-26T12:13:22.416Z,20.34
2023-04-26T12:14:22.383Z,20.71
2023-04-26T12:15:22.448Z,20.38
2023-04-26T12:16:26.658Z,20.48
2023-04-26T12:17:22.580Z,20.00
2023-04-26T12:18:22.463Z,20.23
2023-04-26T12:19:22.392Z,20.46
2023-04-26T12:20:22.413Z,20.74
2023-04-26T12:21:22.404Z,21.06
2023-04-26T12:22:22.404Z,21.24
2023-04-26T12:23:22.432Z,21.16
2023-04-26T12:24:22.379Z,21.01
2023-04-26T12:25:22.364Z,20.98
2023-04-26T12:26:22.383Z,21.01
2023-04-26T12:27:22.386Z,20.97
2023-04-26T12:28:22.360Z,20.82
2023-04-26T12:29:22.379Z,20.89
2023-04-26T12:30:22.365Z,20.88
2023-04-26T12:31:22.379Z,21.04
2023-04-26T12:32:22.904Z,20.93
2023-04-26T12:33:22.345Z,20.91
2023-04-26T12:34:22.310Z,20.93
2023-04-26T12:35:22.314Z,20.79
2023-04-26T12:36:22.325Z,20.90
2023-04-26T12:37:22.329Z,20.43
2023-04-26T12:38:22.288Z,20.22
2023-04-26T12:39:22.293Z,19.59
2023-04-26T12:40:22.294Z,19.27
2023-04-26T12:41:22.274Z,19.25
2023-04-26T12:42:22.306Z,19.55
2023-04-26T12:43:22.247Z,19.58
2023-04-26T12:44:22.887Z,19.62
2023-04-26T12:45:22.379Z,19.87
2023-04-26T12:46:22.303Z,19.88
2023-04-26T12:47:22.270Z,20.05
2023-04-26T12:48:22.210Z,20.01
2023-04-26T12:49:22.211Z,20.03
2023-04-26T12:50:22.246Z,20.12
2023-04-26T12:51:22.259Z,19.97
2023-04-26T12:52:22.252Z,20.02
2023-04-26T12:53:22.255Z,19.99
2023-04-26T12:54:22.246Z,20.11
2023-04-26T12:55:22.342Z,20.14
2023-04-26T12:56:22.275Z,20.01
2023-04-26T12:57:22.261Z,19.98
2023-04-26T12:58:22.264Z,20.08
2023-04-26T12:59:22.353Z,19.98
2023-04-26T13:00:22.289Z,19.80
2023-04-26T13:01:22.396Z,19.68
2023-04-26T13:02:22.477Z,19.78
2023-04-26T13:03:22.424Z,19.89
2023-04-26T13:04:22.387Z,19.82
2023-04-26T13:05:22.303Z,19.57
2023-04-26T13:06:22.288Z,19.62
2023-04-26T13:07:22.360Z,19.40
2023-04-26T13:08:22.340Z,19.50
2023-04-26T13:09:22.315Z,19.24
2023-04-26T13:10:22.333Z,19.19
2023-04-26T13:11:22.312Z,19.21
2023-04-26T13:12:22.349Z,19.01
2023-04-26T13:13:32.329Z,19.28
2023-04-26T13:14:23.365Z,19.19
2023-04-26T13:15:22.313Z,19.19
2023-04-26T13:16:22.358Z,19.42
2023-04-26T13:17:22.496Z,19.60
2023-04-26T13:18:22.326Z,19.80
2023-04-26T13:19:22.336Z,19.80
2023-04-26T13:20:23.714Z,19.94
2023-04-26T13:21:22.311Z,19.91
2023-04-26T13:22:22.306Z,19.96
2023-04-26T13:23:22.284Z,19.85
2023-04-26T13:24:22.285Z,19.79
2023-04-26T13:25:22.263Z,19.76
2023-04-26T13:26:22.266Z,19.72
2023-04-26T13:27:22.257Z,19.73
2023-04-26T13:28:22.252Z,19.75
2023-04-26T13:29:22.262Z,19.78
2023-04-26T13:30:22.268Z,19.69
2023-04-26T13:31:22.304Z,19.33
2023-04-26T13:32:22.315Z,19.48
2023-04-26T13:33:22.324Z,19.19
2023-04-26T13:34:22.228Z,19.33
2023-04-26T13:35:22.240Z,19.19
2023-04-26T13:36:22.198Z,19.05
2023-04-26T13:37:23.153Z,19.16
2023-04-26T13:38:22.179Z,18.98
2023-04-26T13:39:22.209Z,18.89
2023-04-26T13:40:22.163Z,18.92
2023-04-26T13:41:22.154Z,18.82
2023-04-26T13:42:22.214Z,18.95
2023-04-26T13:43:22.180Z,19.01
2023-04-26T13:44:22.178Z,18.92
2023-04-26T13:45:22.157Z,18.84
2023-04-26T13:46:22.149Z,18.98
2023-04-26T13:47:22.141Z,18.86
2023-04-26T13:48:22.090Z,18.65
2023-04-26T13:49:22.135Z,18.86
2023-04-26T13:50:22.118Z,18.74
2023-04-26T13:51:22.111Z,18.80
2023-04-26T13:52:22.085Z,18.88
2023-04-26T13:53:22.116Z,18.83
2023-04-26T13:54:22.109Z,18.69
2023-04-26T13:55:22.057Z,18.81
2023-04-26T13:56:23.550Z,18.71
2023-04-26T13:57:22.093Z,18.54
2023-04-26T13:58:22.051Z,18.63
2023-04-26T13:59:22.052Z,18.65
2023-04-26T14:00:22.037Z,18.81
2023-04-26T14:01:22.046Z,18.85
2023-04-26T14:02:22.186Z,18.89
2023-04-26T14:03:22.276Z,18.91
2023-04-26T14:04:22.198Z,18.89
2023-04-26T14:05:22.130Z,19.21
2023-04-26T14:06:21.997Z,19.30
2023-04-26T14:07:21.967Z,19.47
2023-04-26T14:08:21.995Z,19.63
2023-04-26T14:09:21.996Z,19.74
2023-04-26T14:10:21.982Z,19.85
2023-04-26T14:11:22.006Z,19.96
2023-04-26T14:12:21.975Z,20.06
2023-04-26T14:13:21.949Z,20.03
2023-04-26T14:14:21.958Z,20.05
2023-04-26T14:15:21.938Z,20.06
2023-04-26T14:16:22.025Z,20.15
2023-04-26T14:17:21.978Z,20.11
2023-04-26T14:18:21.926Z,20.17
2023-04-26T14:19:21.909Z,20.19
2023-04-26T14:20:21.905Z,20.29
2023-04-26T14:21:21.942Z,20.35
2023-04-26T14:22:21.904Z,20.37
2023-04-26T14:23:21.888Z,20.37
2023-04-26T14:24:21.921Z,20.43
2023-04-26T14:25:21.914Z,20.52
2023-04-26T14:26:21.879Z,20.49
2023-04-26T14:27:21.878Z,20.60
2023-04-26T14:28:21.874Z,20.61
2023-04-26T14:29:21.863Z,20.65
2023-04-26T14:30:21.846Z,20.66
2023-04-26T14:31:21.859Z,20.74
2023-04-26T14:32:21.836Z,20.71
2023-04-26T14:33:23.730Z,20.78
2023-04-26T14:34:21.807Z,20.90
2023-04-26T14:35:21.867Z,20.93
2023-04-26T14:36:21.826Z,20.95
2023-04-26T14:37:21.805Z,21.03
2023-04-26T14:38:21.806Z,21.09
2023-04-26T14:39:24.453Z,21.22
2023-04-26T14:40:21.772Z,21.19
2023-04-26T14:41:21.783Z,21.33
2023-04-26T14:42:21.772Z,21.41
2023-04-26T14:43:21.775Z,21.54
2023-04-26T14:44:21.731Z,21.54
2023-04-26T14:45:27.721Z,21.54
2023-04-26T14:46:22.880Z,21.60
2023-04-26T14:47:21.746Z,21.57
2023-04-26T14:48:21.726Z,21.68
2023-04-26T14:49:21.717Z,21.68
2023-04-26T14:50:21.689Z,21.68
2023-04-26T14:51:21.725Z,21.79
2023-04-26T14:52:21.694Z,21.73
2023-04-26T14:53:21.680Z,21.74
2023-04-26T14:54:21.707Z,21.80
2023-04-26T14:55:21.707Z,21.83
2023-04-26T14:56:21.684Z,21.87
2023-04-26T14:57:21.679Z,21.93
2023-04-26T14:58:22.443Z,21.97
2023-04-26T14:59:21.637Z,21.98
2023-04-26T15:00:21.686Z,22.10
2023-04-26T15:01:21.723Z,22.10
2023-04-26T15:02:21.836Z,22.19
2023-04-26T15:03:21.952Z,22.22
2023-04-26T15:04:22.085Z,22.27
2023-04-26T15:05:21.837Z,22.29
2023-04-26T15:06:21.830Z,22.28
2023-04-26T15:07:31.807Z,22.28
2023-04-26T15:08:22.968Z,22.34
2023-04-26T15:09:21.893Z,22.34
2023-04-26T15:10:21.867Z,22.36
2023-04-26T15:11:21.842Z,22.37
2023-04-26T15:12:21.892Z,22.40
2023-04-26T15:13:21.849Z,22.40
2023-04-26T15:14:21.834Z,22.44
2023-04-26T15:15:21.845Z,22.43
2023-04-26T15:16:21.892Z,22.50
2023-04-26T15:17:21.807Z,22.50
2023-04-26T15:18:21.872Z,22.54
2023-04-26T15:19:21.838Z,22.52
2023-04-26T15:20:21.775Z,22.49
2023-04-26T15:21:21.781Z,22.56
2023-04-26T15:22:21.894Z,22.55
2023-04-26T15:23:21.828Z,22.52
2023-04-26T15:24:21.919Z,22.58
2023-04-26T15:25:21.923Z,22.59
2023-04-26T15:26:21.962Z,22.59
2023-04-26T15:27:21.996Z,22.58
2023-04-26T15:28:22.073Z,22.61
2023-04-26T15:29:22.124Z,22.59
2023-04-26T15:30:22.169Z,22.62
2023-04-26T15:31:22.188Z,22.68
2023-04-26T15:32:22.228Z,22.71
2023-04-26T15:33:22.292Z,22.67
2023-04-26T15:34:22.346Z,22.70
2023-04-26T15:35:22.422Z,22.70
2023-04-26T15:36:22.386Z,22.68
2023-04-26T15:37:22.436Z,22.68
2023-04-26T15:38:22.484Z,22.71
2023-04-26T15:39:22.537Z,22.73
2023-04-26T15:40:22.718Z,22.74
2023-04-26T15:41:22.647Z,22.71
2023-04-26T15:42:22.710Z,22.76
2023-04-26T15:43:22.753Z,22.76
2023-04-26T15:44:22.788Z,22.79
2023-04-26T15:45:22.823Z,22.77
2023-04-26T15:46:22.939Z,22.79
2023-04-26T15:47:22.946Z,22.80
2023-04-26T15:48:22.973Z,22.83
2023-04-26T15:49:22.988Z,22.82
2023-04-26T15:50:23.041Z,22.83
2023-04-26T15:51:23.082Z,22.86
2023-04-26T15:52:23.131Z,22.83
2023-04-26T15:53:23.187Z,22.85
2023-04-26T15:54:23.248Z,22.87
2023-04-26T15:55:23.274Z,22.91
2023-04-26T15:56:23.333Z,22.88
2023-04-26T15:57:23.385Z,22.94
2023-04-26T15:58:23.473Z,22.91
2023-04-26T15:59:23.555Z,22.92
2023-04-26T16:00:23.558Z,23.03
2023-04-26T16:01:23.686Z,22.97
2023-04-26T16:02:23.893Z,22.99
2023-04-26T16:03:24.198Z,22.98
2023-04-26T16:04:23.920Z,23.01
2023-04-26T16:05:23.829Z,22.98
2023-04-26T16:06:23.897Z,23.06
2023-04-26T16:07:23.967Z,22.99
2023-04-26T16:08:39.467Z,23.05
2023-04-26T16:09:25.971Z,23.04
2023-04-26T16:10:24.015Z,23.10
2023-04-26T16:11:24.020Z,23.10
2023-04-26T16:12:24.083Z,23.12
2023-04-26T16:13:23.973Z,23.15
2023-04-26T16:14:24.000Z,23.13
2023-04-26T16:15:23.982Z,23.12
2023-04-26T16:16:24.049Z,23.19
2023-04-26T16:17:24.059Z,23.13
2023-04-26T16:18:24.130Z,23.13
2023-04-26T16:19:24.736Z,23.16
2023-04-26T16:20:24.244Z,23.16
2023-04-26T16:21:24.299Z,23.21
2023-04-26T16:22:24.435Z,23.15
2023-04-26T16:23:24.398Z,23.22
2023-04-26T16:24:24.407Z,23.24
2023-04-26T16:25:24.514Z,23.25
2023-04-26T16:26:24.552Z,23.18
2023-04-26T16:27:24.606Z,23.25
2023-04-26T16:28:24.616Z,23.25
2023-04-26T16:29:24.739Z,23.30
2023-04-26T16:30:24.702Z,23.27
2023-04-26T16:31:24.822Z,23.28
2023-04-26T16:32:24.938Z,23.28
2023-04-26T16:33:25.084Z,23.26
2023-04-26T16:34:24.961Z,23.29
2023-04-26T16:35:24.981Z,23.29
2023-04-26T16:36:25.027Z,23.31
2023-04-26T16:37:25.085Z,23.34
2023-04-26T16:38:25.139Z,23.34
2023-04-26T16:39:25.173Z,23.32
2023-04-26T16:40:25.223Z,23.38
2023-04-26T16:41:25.267Z,23.32
2023-04-26T16:42:26.397Z,23.35
2023-04-26T16:43:25.364Z,23.44
2023-04-26T16:44:25.405Z,23.38
2023-04-26T16:45:25.441Z,23.37
2023-04-26T16:46:25.541Z,23.43
2023-04-26T16:47:25.528Z,23.43
2023-04-26T16:48:25.534Z,23.40
2023-04-26T16:49:25.586Z,23.44
2023-04-26T16:50:25.657Z,23.43
2023-04-26T16:51:25.691Z,23.50
2023-04-26T16:52:25.820Z,23.50
2023-04-26T16:53:25.793Z,23.50
2023-04-26T16:54:25.856Z,23.49
2023-04-26T16:55:25.896Z,23.54
2023-04-26T16:56:25.903Z,23.52
2023-04-26T16:57:25.947Z,23.55
2023-04-26T16:58:25.962Z,23.47
2023-04-26T16:59:26.073Z,23.51
2023-04-26T17:00:26.087Z,23.57
